Terminal Aerodrome Forecast
Issued by NWS Birmingham, AL

Home | Current Version | Previous Version | Text Only | Print | Product List | Glossary On
Versions: 1 2 3 4 5 6 7 8 9 10 11 12 13 14 15 16 17 18
722
FTUS44 KBMX 022348
TAFBHM
TAF
KBHM 022348Z 0300/0324 36003KT P6SM BKN250
     FM031500 05006KT P6SM BKN120 PROB30 0319/0322 6SM -SHRA OVC060
     FM032200 03005KT 6SM -SHRA OVC050=

USA.gov is the U.S. government's official web portal to all federal, state and local government web resources and services.